createdAt,value
2023-05-14T00:10:55.321Z,20.81
2023-05-14T00:25:57.012Z,20.78
2023-05-14T00:40:58.714Z,20.74
2023-05-14T00:56:00.518Z,20.73
2023-05-14T01:11:09.016Z,20.69
2023-05-14T01:26:10.743Z,20.65
2023-05-14T01:41:13.886Z,20.62
2023-05-14T01:56:15.546Z,20.58
2023-05-14T02:11:17.345Z,20.57
2023-05-14T02:26:19.247Z,20.54
2023-05-14T02:41:20.965Z,20.51
2023-05-14T02:56:22.654Z,20.49
2023-05-14T03:11:24.397Z,20.45
2023-05-14T03:26:26.073Z,20.43
2023-05-14T03:41:27.813Z,20.41
2023-05-14T03:56:29.629Z,20.40
2023-05-14T04:11:31.331Z,20.38
2023-05-14T04:26:33.096Z,20.37
2023-05-14T04:41:35.042Z,20.35
2023-05-14T04:56:36.831Z,20.34
2023-05-14T05:11:38.528Z,20.34
2023-05-14T05:26:40.246Z,20.35
2023-05-14T05:41:42.662Z,20.35
2023-05-14T05:56:44.344Z,20.36
2023-05-14T06:11:46.013Z,20.34
2023-05-14T06:26:47.775Z,20.34
2023-05-14T06:41:49.480Z,20.36
2023-05-14T06:56:51.170Z,20.35
2023-05-14T07:11:52.878Z,20.40
2023-05-14T07:26:54.529Z,20.43
2023-05-14T07:41:56.246Z,20.48
2023-05-14T07:56:57.964Z,20.52
2023-05-14T08:11:59.666Z,20.54
2023-05-14T08:27:01.570Z,20.57
2023-05-14T08:42:06.751Z,20.57
2023-05-14T08:57:10.293Z,20.62
2023-05-14T09:12:12.023Z,20.67
2023-05-14T09:27:19.953Z,20.74
2023-05-14T09:42:21.637Z,20.77
2023-05-14T09:57:23.433Z,20.80
2023-05-14T10:12:31.299Z,20.85
2023-05-14T10:27:34.005Z,20.88
2023-05-14T10:42:38.190Z,20.89
2023-05-14T10:57:42.186Z,20.92
2023-05-14T11:12:48.753Z,20.96
2023-05-14T11:27:50.798Z,20.99
2023-05-14T11:42:52.735Z,21.02
2023-05-14T11:57:54.642Z,21.05
2023-05-14T12:12:56.426Z,21.07
2023-05-14T12:27:58.121Z,21.15
2023-05-14T12:42:59.865Z,21.18
2023-05-14T12:58:01.581Z,21.23
2023-05-14T13:13:03.227Z,21.29
2023-05-14T13:28:05.128Z,21.35
2023-05-14T13:43:06.834Z,21.38
2023-05-14T13:58:08.529Z,21.41
2023-05-14T14:13:10.488Z,21.46
2023-05-14T14:28:12.163Z,21.49
2023-05-14T14:43:13.850Z,21.53
2023-05-14T14:58:15.817Z,21.56
2023-05-14T15:13:17.614Z,21.57
2023-05-14T15:28:19.323Z,21.58
2023-05-14T15:43:21.020Z,21.63
2023-05-14T15:58:22.721Z,21.66
2023-05-14T16:13:24.480Z,21.68
2023-05-14T16:28:26.281Z,21.73
2023-05-14T16:43:27.967Z,21.77
2023-05-14T16:58:29.634Z,21.78
2023-05-14T17:13:34.222Z,21.79
2023-05-14T17:28:35.957Z,21.80
2023-05-14T17:43:37.662Z,21.80
2023-05-14T17:58:39.410Z,21.81
2023-05-14T18:13:41.118Z,21.79
2023-05-14T18:28:42.879Z,21.76
2023-05-14T18:43:44.677Z,21.75
2023-05-14T18:58:46.349Z,21.73
2023-05-14T19:13:48.003Z,21.72
2023-05-14T19:28:49.904Z,21.69
2023-05-14T19:43:51.599Z,21.69
2023-05-14T19:58:53.299Z,21.67
2023-05-14T20:13:55.008Z,21.65
2023-05-14T20:28:56.681Z,21.63
2023-05-14T20:43:58.411Z,21.60
2023-05-14T20:59:00.062Z,21.58
2023-05-14T21:14:01.812Z,21.55
2023-05-14T21:29:04.026Z,21.51
2023-05-14T21:44:05.750Z,21.46
2023-05-14T21:59:07.470Z,21.43
2023-05-14T22:14:09.168Z,21.39
2023-05-14T22:29:10.899Z,21.36
2023-05-14T22:44:12.623Z,21.35
2023-05-14T22:59:14.307Z,21.34
2023-05-14T23:14:16.044Z,21.31
2023-05-14T23:29:17.707Z,21.29
2023-05-14T23:44:19.363Z,21.27
2023-05-14T23:59:21.120Z,21.24
